Time;durP1;ratioP1;P1;durP2;ratioP2;P2;SDS_P1;SDS_P2;PMS_P1;PMS_P2;Temp;Humidity;BMP_temperature;BMP_pressure;BME280_temperature;BME280_humidity;BME280_pressure;Samples;Min_cycle;Max_cycle;Signal;HPM_P1;HPM_P2
2023/09/10 00:02:24;;;;;;;24.25;17.30;;;;;;;22.26;100.00;101590.53;5033690;28;20131;-65
2023/09/10 00:05:12;;;;;;;22.25;16.40;;;;;;;22.24;100.00;101587.28;5044076;28;20436;-63
2023/09/10 00:08:00;;;;;;;23.98;18.38;;;;;;;22.24;100.00;101585.31;5049093;28;20436;-64
2023/09/10 00:10:49;;;;;;;20.88;16.48;;;;;;;22.22;100.00;101584.00;5051157;28;20044;-64
2023/09/10 00:13:37;;;;;;;22.75;17.65;;;;;;;22.21;100.00;101593.47;5032562;28;20038;-64
2023/09/10 00:16:25;;;;;;;20.80;15.65;;;;;;;22.22;100.00;101595.09;5053222;28;20053;-64
2023/09/10 00:19:13;;;;;;;21.83;17.20;;;;;;;22.24;100.00;101592.81;5055036;28;20040;-64
2023/09/10 00:22:01;;;;;;;24.85;19.10;;;;;;;22.26;100.00;101587.75;5040168;28;20080;-62
2023/09/10 00:24:49;;;;;;;20.35;16.55;;;;;;;22.25;100.00;101588.91;5051209;28;20080;-63
2023/09/10 00:27:37;;;;;;;24.73;18.17;;;;;;;22.24;100.00;101582.53;5052380;28;20045;-65
2023/09/10 00:30:27;;;;;;;19.67;15.60;;;;;;;22.23;100.00;101585.66;5043178;28;20052;-63
2023/09/10 00:33:17;;;;;;;23.08;17.80;;;;;;;22.23;100.00;101586.47;5042423;28;20045;-62
2023/09/10 00:36:08;;;;;;;23.40;17.98;;;;;;;22.23;100.00;101577.31;5058725;28;20128;-64
2023/09/10 00:38:56;;;;;;;22.45;18.65;;;;;;;22.24;100.00;101573.38;5034223;28;20532;-61
2023/09/10 00:41:45;;;;;;;27.23;19.33;;;;;;;22.20;100.00;101581.56;5041480;28;20065;-63
2023/09/10 00:44:34;;;;;;;25.00;19.45;;;;;;;22.16;100.00;101575.00;5034861;28;20128;-63
2023/09/10 00:47:22;;;;;;;22.67;17.70;;;;;;;22.13;100.00;101572.91;5029999;28;20401;-63
2023/09/10 00:50:10;;;;;;;21.23;16.80;;;;;;;22.11;100.00;101570.44;5025330;28;20049;-63
2023/09/10 00:52:59;;;;;;;24.05;18.90;;;;;;;22.11;100.00;101578.75;5046767;28;20178;-64
2023/09/10 00:55:48;;;;;;;23.92;19.02;;;;;;;22.13;100.00;101565.38;5052893;28;20055;-64
2023/09/10 00:58:36;;;;;;;23.98;19.27;;;;;;;22.15;100.00;101573.34;5049055;28;20041;-64
2023/09/10 01:01:25;;;;;;;25.42;20.92;;;;;;;22.12;100.00;101582.34;5038225;28;20048;-65
2023/09/10 01:04:14;;;;;;;24.60;20.27;;;;;;;22.09;100.00;101571.91;5015191;28;20046;-63
2023/09/10 01:07:02;;;;;;;21.80;18.85;;;;;;;22.06;100.00;101578.94;5005825;28;20046;-63
2023/09/10 01:09:50;;;;;;;27.20;21.30;;;;;;;22.04;100.00;101575.66;5009161;28;20049;-64
2023/09/10 01:12:56;;;;;;;25.45;21.15;;;;;;;22.04;100.00;101578.44;5043126;28;20041;-64
2023/09/10 01:15:52;;;;;;;28.48;20.60;;;;;;;22.04;100.00;101581.22;5032932;28;20134;-62
2023/09/10 01:18:49;;;;;;;22.85;19.40;;;;;;;22.06;100.00;101578.13;5019351;28;20037;-64
2023/09/10 01:21:41;;;;;;;26.95;23.13;;;;;;;22.05;100.00;101582.84;5040742;28;20502;-64
2023/09/10 01:24:48;;;;;;;26.55;23.30;;;;;;;22.02;100.00;101580.72;5034407;28;20056;-62
2023/09/10 01:27:36;;;;;;;24.27;18.52;;;;;;;22.00;100.00;101580.22;5037445;28;20049;-63
2023/09/10 01:30:24;;;;;;;26.38;22.20;;;;;;;22.00;100.00;101583.00;5037504;28;20049;-63
2023/09/10 01:33:36;;;;;;;28.38;22.92;;;;;;;21.99;100.00;101581.38;5035034;28;20038;-63
2023/09/10 01:36:32;;;;;;;32.47;25.95;;;;;;;21.96;100.00;101587.59;5022665;28;20497;-65
2023/09/10 01:39:40;;;;;;;25.75;20.60;;;;;;;21.96;100.00;101584.81;5035152;28;20053;-63
2023/09/10 01:42:28;;;;;;;31.73;26.42;;;;;;;21.95;100.00;101580.41;5041020;28;20167;-63
2023/09/10 01:45:17;;;;;;;33.42;24.42;;;;;;;21.91;100.00;101590.50;5055059;28;20244;-63
2023/09/10 01:48:06;;;;;;;30.42;25.95;;;;;;;21.85;100.00;101584.31;5040167;28;20060;-63
2023/09/10 01:50:54;;;;;;;28.65;24.45;;;;;;;21.83;100.00;101577.47;5054232;28;20041;-63
2023/09/10 01:53:42;;;;;;;31.52;24.90;;;;;;;21.81;100.00;101580.56;5039415;28;20045;-63
2023/09/10 01:56:31;;;;;;;31.70;26.60;;;;;;;21.82;100.00;101586.94;5024937;28;20096;-63
2023/09/10 01:59:19;;;;;;;26.90;22.80;;;;;;;21.78;100.00;101583.19;5047916;28;20041;-64
2023/09/10 02:02:07;;;;;;;33.75;25.15;;;;;;;21.80;100.00;101584.47;5039000;28;20037;-63
2023/09/10 02:04:55;;;;;;;28.65;24.15;;;;;;;21.85;100.00;101591.84;5055834;28;20059;-64
2023/09/10 02:07:44;;;;;;;30.05;24.73;;;;;;;21.88;100.00;101594.75;5047113;28;20042;-64
2023/09/10 02:10:33;;;;;;;32.95;28.38;;;;;;;21.86;100.00;101599.00;5021112;28;20565;-63
2023/09/10 02:13:21;;;;;;;33.75;27.98;;;;;;;21.84;100.00;101592.97;5020898;28;20041;-63
2023/09/10 02:16:09;;;;;;;29.05;25.67;;;;;;;21.80;100.00;101594.78;5033573;28;20084;-62
2023/09/10 02:18:58;;;;;;;31.20;26.10;;;;;;;21.76;100.00;101593.78;5027861;28;20046;-63
2023/09/10 02:21:46;;;;;;;32.20;28.70;;;;;;;21.75;100.00;101592.97;5053088;28;20501;-63
2023/09/10 02:24:33;;;;;;;32.20;28.20;;;;;;;21.75;100.00;101592.97;5041729;28;20048;-63
2023/09/10 02:27:21;;;;;;;31.27;26.83;;;;;;;21.75;100.00;101592.97;5052834;28;20041;-63
2023/09/10 02:30:10;;;;;;;35.10;26.02;;;;;;;21.71;100.00;101597.53;5048761;28;20051;-63
2023/09/10 02:32:58;;;;;;;31.92;27.27;;;;;;;21.67;100.00;101594.59;5032213;28;20088;-63
2023/09/10 02:35:46;;;;;;;36.05;28.50;;;;;;;21.63;100.00;101593.59;5036645;28;20053;-63
2023/09/10 02:38:34;;;;;;;40.47;30.92;;;;;;;21.61;100.00;101593.09;5022418;28;20045;-64
2023/09/10 02:41:23;;;;;;;35.00;28.17;;;;;;;21.58;100.00;101588.22;5034001;28;20049;-63
2023/09/10 02:44:12;;;;;;;39.28;29.08;;;;;;;21.57;100.00;101588.53;5020564;28;20048;-63
2023/09/10 02:47:00;;;;;;;37.00;31.58;;;;;;;21.56;100.00;101596.03;5027373;28;20034;-64
2023/09/10 02:49:48;;;;;;;35.20;31.40;;;;;;;21.53;100.00;101590.31;5037605;28;20585;-63
2023/09/10 02:52:36;;;;;;;36.00;30.80;;;;;;;21.52;100.00;101595.06;5054790;28;20751;-63
2023/09/10 02:55:24;;;;;;;36.67;31.20;;;;;;;21.54;100.00;101597.50;5040022;28;20092;-64
2023/09/10 02:58:12;;;;;;;36.38;31.73;;;;;;;21.48;100.00;101599.63;5031625;28;20049;-64
2023/09/10 03:01:05;;;;;;;40.72;32.95;;;;;;;21.42;100.00;101600.91;5017055;28;20081;-64
2023/09/10 03:03:53;;;;;;;36.83;31.42;;;;;;;21.38;100.00;101597.09;5019724;28;20505;-63
2023/09/10 03:06:49;;;;;;;35.05;30.80;;;;;;;21.33;100.00;101588.94;5035167;28;20053;-64
2023/09/10 03:09:38;;;;;;;39.90;31.42;;;;;;;21.30;100.00;101597.91;5023486;28;20194;-64
2023/09/10 03:12:27;;;;;;;35.63;31.42;;;;;;;21.27;100.00;101594.63;5039434;28;20048;-65
2023/09/10 03:15:18;;;;;;;35.58;31.67;;;;;;;21.27;100.00;101591.88;5032089;28;20057;-63
2023/09/10 03:18:06;;;;;;;38.00;32.45;;;;;;;21.25;100.00;101585.81;5022877;28;20108;-61
2023/09/10 03:20:55;;;;;;;33.47;29.35;;;;;;;21.23;100.00;101599.19;5024640;28;20067;-62
2023/09/10 03:23:43;;;;;;;36.22;32.00;;;;;;;21.21;100.00;101601.50;5040395;28;20048;-63
2023/09/10 03:26:31;;;;;;;41.33;32.35;;;;;;;21.20;100.00;101593.47;5051578;28;20575;-64
2023/09/10 03:29:19;;;;;;;37.17;33.10;;;;;;;21.18;100.00;101595.75;5019683;28;20060;-64
2023/09/10 03:32:07;;;;;;;40.35;33.65;;;;;;;21.17;100.00;101596.91;5028257;28;20052;-65
2023/09/10 03:34:57;;;;;;;38.08;33.83;;;;;;;21.15;100.00;101594.44;5052242;28;20045;-63
2023/09/10 03:37:45;;;;;;;35.20;31.30;;;;;;;21.13;100.00;101591.19;5038198;28;20067;-64
2023/09/10 03:40:33;;;;;;;34.78;30.67;;;;;;;21.11;100.00;101587.91;5034430;28;20051;-63
2023/09/10 03:43:22;;;;;;;35.50;30.13;;;;;;;21.11;100.00;101585.13;5032684;28;20057;-62
2023/09/10 03:46:13;;;;;;;40.42;32.58;;;;;;;21.10;100.00;101586.28;5017632;28;20052;-62
2023/09/10 03:49:01;;;;;;;37.78;33.22;;;;;;;21.05;100.00;101590.00;5017910;28;20077;-64
2023/09/10 03:51:51;;;;;;;38.90;33.90;;;;;;;21.02;100.00;101582.34;5052007;28;20086;-64
2023/09/10 03:54:39;;;;;;;36.33;31.20;;;;;;;21.02;100.00;101582.34;5038790;28;20060;-64
2023/09/10 03:57:27;;;;;;;40.30;33.88;;;;;;;20.99;100.00;101576.63;5037165;28;20045;-64
2023/09/10 04:00:15;;;;;;;39.75;32.80;;;;;;;20.97;100.00;101574.19;5031029;28;20045;-64
2023/09/10 04:03:04;;;;;;;37.75;31.65;;;;;;;20.97;100.00;101576.13;5015142;28;20756;-64
2023/09/10 04:05:53;;;;;;;37.00;31.52;;;;;;;20.96;100.00;101574.50;5003544;28;20041;-63
2023/09/10 04:08:41;;;;;;;37.40;31.88;;;;;;;20.97;100.00;101574.19;5016990;28;20041;-63
2023/09/10 04:11:29;;;;;;;41.47;35.58;;;;;;;20.96;100.00;101568.94;5037450;28;20045;-64
2023/09/10 04:14:17;;;;;;;38.22;32.00;;;;;;;20.97;100.00;101570.56;5037733;28;20362;-63
2023/09/10 04:17:05;;;;;;;40.20;32.95;;;;;;;20.98;100.00;101570.25;5038560;28;20044;-63
2023/09/10 04:19:54;;;;;;;35.72;31.98;;;;;;;20.97;100.00;101567.81;5052417;28;20124;-63
2023/09/10 04:22:42;;;;;;;37.63;31.48;;;;;;;20.95;100.00;101570.06;5029521;28;20057;-63
2023/09/10 04:25:31;;;;;;;38.22;31.20;;;;;;;21.00;100.00;101567.19;5031009;28;20481;-63
2023/09/10 04:28:19;;;;;;;38.97;34.80;;;;;;;21.02;100.00;101570.44;5003128;28;20053;-63
2023/09/10 04:31:14;;;;;;;38.78;31.92;;;;;;;21.01;100.00;101566.84;5025379;28;20049;-62
2023/09/10 04:34:02;;;;;;;38.88;34.28;;;;;;;21.02;100.00;101568.50;5018996;28;20048;-63
2023/09/10 04:36:50;;;;;;;40.42;33.83;;;;;;;20.97;100.00;101576.97;5018416;28;20064;-63
2023/09/10 04:39:40;;;;;;;40.17;35.40;;;;;;;20.94;100.00;101576.75;5022331;28;20037;-63
2023/09/10 04:42:28;;;;;;;41.15;35.10;;;;;;;20.91;100.00;101575.44;5031512;28;20049;-63
2023/09/10 04:45:16;;;;;;;36.22;31.27;;;;;;;20.88;100.00;101572.50;5018427;28;20050;-63
2023/09/10 04:48:05;;;;;;;33.55;29.45;;;;;;;20.92;100.00;101574.31;5037322;28;20133;-64
2023/09/10 04:50:53;;;;;;;40.20;35.90;;;;;;;20.92;100.00;101577.06;5036655;28;20045;-64
2023/09/10 04:53:44;;;;;;;37.80;31.88;;;;;;;20.93;100.00;101572.38;5043464;28;20484;-64
2023/09/10 04:56:32;;;;;;;37.08;32.97;;;;;;;20.93;100.00;101573.19;5061546;28;20112;-62
2023/09/10 04:59:20;;;;;;;32.65;28.70;;;;;;;20.92;100.00;101576.25;5070982;28;20115;-63
2023/09/10 05:02:08;;;;;;;37.25;32.28;;;;;;;20.94;100.00;101580.34;5055243;28;20045;-63
2023/09/10 05:04:56;;;;;;;44.40;35.97;;;;;;;20.92;100.00;101570.72;5041610;28;20107;-63
2023/09/10 05:07:48;;;;;;;38.97;34.15;;;;;;;20.93;100.00;101577.91;5047126;28;20044;-64
2023/09/10 05:10:38;;;;;;;37.58;30.00;;;;;;;20.95;100.00;101570.06;5049526;28;20515;-63
2023/09/10 05:13:26;;;;;;;45.22;36.92;;;;;;;20.92;100.00;101568.75;5056004;28;20049;-63
2023/09/10 05:16:14;;;;;;;42.60;38.00;;;;;;;20.89;100.00;101579.69;5055868;28;20073;-62
2023/09/10 05:19:02;;;;;;;37.70;30.48;;;;;;;20.89;100.00;101577.72;5040689;28;20052;-63
2023/09/10 05:21:50;;;;;;;40.58;30.13;;;;;;;20.93;100.00;101583.44;5049146;28;20452;-63
2023/09/10 05:24:38;;;;;;;38.33;33.97;;;;;;;20.95;100.00;101589.47;5046457;28;20057;-63
2023/09/10 05:27:26;;;;;;;35.53;31.00;;;;;;;20.93;100.00;101594.53;5042333;28;20445;-63
2023/09/10 05:30:14;;;;;;;39.55;32.67;;;;;;;20.95;100.00;101592.22;5042717;28;20049;-63
2023/09/10 05:33:03;;;;;;;37.55;30.45;;;;;;;20.97;100.00;101593.56;5047522;28;20510;-63
2023/09/10 05:35:58;;;;;;;45.03;36.67;;;;;;;20.98;100.00;101586.88;5033852;28;20413;-62
2023/09/10 05:38:48;;;;;;;37.60;33.15;;;;;;;20.96;100.00;101591.94;5034464;28;20098;-62
2023/09/10 05:41:36;;;;;;;40.80;32.90;;;;;;;20.94;100.00;101588.66;5044729;28;20052;-63
2023/09/10 05:44:24;;;;;;;41.40;35.35;;;;;;;20.91;100.00;101586.53;5044915;28;20395;-62
2023/09/10 05:47:13;;;;;;;39.08;34.85;;;;;;;20.89;100.00;101594.34;5053922;28;20457;-63
2023/09/10 05:50:01;;;;;;;32.47;29.02;;;;;;;20.91;100.00;101597.63;5053964;28;20136;-62
2023/09/10 05:52:50;;;;;;;39.28;32.22;;;;;;;20.93;100.00;101592.56;5020101;28;20052;-62
2023/09/10 05:55:40;;;;;;;45.42;36.85;;;;;;;20.93;100.00;101584.25;5035366;28;20060;-62
2023/09/10 05:58:28;;;;;;;41.50;34.08;;;;;;;20.92;100.00;101595.66;5033820;28;20053;-63
2023/09/10 06:01:16;;;;;;;42.72;35.72;;;;;;;20.95;100.00;101592.22;5043056;28;20416;-62
2023/09/10 06:04:05;;;;;;;40.40;33.58;;;;;;;20.96;100.00;101591.13;5048229;28;20045;-63
2023/09/10 06:06:53;;;;;;;35.25;30.60;;;;;;;20.96;100.00;101599.44;5052782;28;20044;-62
2023/09/10 06:09:41;;;;;;;38.53;31.00;;;;;;;21.01;100.00;101590.97;5046513;28;20045;-63
2023/09/10 06:12:29;;;;;;;41.28;34.72;;;;;;;21.00;100.00;101598.47;5046485;28;20159;-63
2023/09/10 06:15:17;;;;;;;39.38;30.40;;;;;;;21.02;100.00;101604.50;5055437;28;20053;-63
2023/09/10 06:18:06;;;;;;;42.92;36.65;;;;;;;21.05;100.00;101608.59;5034736;28;20140;-68
2023/09/10 06:20:54;;;;;;;33.33;25.80;;;;;;;21.07;100.00;101606.31;5054877;28;20044;-63
2023/09/10 06:23:42;;;;;;;37.03;31.65;;;;;;;21.11;100.00;101615.63;5054692;28;20593;-67
2023/09/10 06:26:31;;;;;;;41.75;34.20;;;;;;;21.11;100.00;101607.31;5031746;28;20054;-62
2023/09/10 06:29:19;;;;;;;39.25;31.45;;;;;;;21.12;100.00;101611.72;5044413;28;20130;-62
2023/09/10 06:32:07;;;;;;;36.80;29.10;;;;;;;21.13;100.00;101607.00;5066058;28;20063;-64
2023/09/10 06:34:57;;;;;;;33.35;26.33;;;;;;;21.17;100.00;101616.31;5070877;28;20040;-64
2023/09/10 06:37:48;;;;;;;32.53;27.85;;;;;;;21.23;100.00;101610.28;5059679;28;20167;-63
2023/09/10 06:40:37;;;;;;;33.13;28.83;;;;;;;21.27;100.00;101614.03;5072085;28;20676;-64
2023/09/10 06:43:26;;;;;;;34.10;29.63;;;;;;;21.30;100.00;101615.34;5054537;28;20044;-63
2023/09/10 06:46:31;;;;;;;36.63;28.48;;;;;;;21.33;100.00;101616.66;5073174;28;20177;-63
2023/09/10 06:49:19;;;;;;;34.35;28.45;;;;;;;21.35;100.00;101619.94;5071228;28;20044;-63
2023/09/10 06:52:08;;;;;;;35.63;29.13;;;;;;;21.36;100.00;101619.63;5046483;28;20075;-63
2023/09/10 06:54:56;;;;;;;35.10;27.85;;;;;;;21.39;100.00;101620.94;5062017;28;20396;-64
2023/09/10 06:57:45;;;;;;;33.42;26.80;;;;;;;21.42;100.00;101634.19;5069189;28;20048;-63
2023/09/10 07:00:34;;;;;;;40.78;32.03;;;;;;;21.45;100.00;101622.44;5070515;28;20048;-64
2023/09/10 07:03:23;;;;;;;32.17;23.35;;;;;;;21.49;100.00;101637.28;5052757;28;20692;-64
2023/09/10 07:06:11;;;;;;;40.83;31.55;;;;;;;21.50;100.00;101630.59;5057828;28;20389;-63
2023/09/10 07:08:59;;;;;;;35.20;28.42;;;;;;;21.52;100.00;101639.41;5069269;28;20044;-61
2023/09/10 07:11:48;;;;;;;31.10;26.30;;;;;;;21.56;100.00;101640.41;5064202;28;20052;-62
2023/09/10 07:14:36;;;;;;;38.45;25.52;;;;;;;21.59;100.00;101634.22;5049151;28;20056;-63
2023/09/10 07:17:24;;;;;;;34.70;25.27;;;;;;;21.62;100.00;101639.13;5069355;28;20052;-62
2023/09/10 07:20:12;;;;;;;35.33;24.88;;;;;;;21.64;100.00;101641.56;5063865;28;20052;-64
2023/09/10 07:23:00;;;;;;;43.40;33.20;;;;;;;21.64;100.00;101647.94;5049815;28;20057;-63
2023/09/10 07:25:49;;;;;;;42.78;30.75;;;;;;;21.66;100.00;101645.66;5046745;28;20056;-63
2023/09/10 07:28:37;;;;;;;36.70;25.55;;;;;;;21.68;100.00;101640.59;5033144;28;20049;-62
2023/09/10 07:31:25;;;;;;;39.60;25.80;;;;;;;21.73;100.00;101647.16;5034400;28;20056;-64
2023/09/10 07:34:13;;;;;;;37.67;26.75;;;;;;;21.77;100.00;101645.34;5033937;28;20086;-63
2023/09/10 07:37:01;;;;;;;30.95;24.95;;;;;;;21.81;100.00;101646.31;5032848;28;20037;-62
2023/09/10 07:39:49;;;;;;;32.22;25.15;;;;;;;21.81;100.00;101636.03;5031708;28;20080;-63
2023/09/10 07:42:37;;;;;;;34.25;25.58;;;;;;;21.84;100.00;101640.13;5049758;28;20095;-64
2023/09/10 07:45:25;;;;;;;33.05;25.33;;;;;;;21.86;100.00;101644.22;5053073;28;20053;-64
2023/09/10 07:48:14;;;;;;;26.10;21.13;;;;;;;21.94;100.00;101648.16;5051710;28;20041;-64
2023/09/10 07:51:02;;;;;;;31.83;25.38;;;;;;;21.97;100.00;101638.34;5051129;28;20134;-63
2023/09/10 07:53:51;;;;;;;37.00;27.60;;;;;;;21.98;100.00;101642.75;5053004;28;20121;-61
2023/09/10 07:56:38;;;;;;;33.22;25.48;;;;;;;21.99;100.00;101636.06;5052762;28;20084;-62
2023/09/10 07:59:26;;;;;;;31.20;24.38;;;;;;;22.02;100.00;101647.31;5052537;28;20124;-63
2023/09/10 08:02:14;;;;;;;35.45;27.00;;;;;;;22.05;100.00;101646.66;5036481;28;20056;-63
2023/09/10 08:05:04;;;;;;;36.03;25.90;;;;;;;22.07;100.00;101643.56;5033137;28;20045;-64
2023/09/10 08:07:53;;;;;;;34.30;25.85;;;;;;;22.09;100.00;101644.88;5031997;28;20494;-62
2023/09/10 08:10:44;;;;;;;36.85;25.25;;;;;;;22.12;100.00;101651.75;5031547;28;20068;-64
2023/09/10 08:13:32;;;;;;;35.55;24.77;;;;;;;22.18;100.00;101655.19;5032446;28;20081;-62
2023/09/10 08:16:20;;;;;;;33.30;24.42;;;;;;;22.24;100.00;101653.91;5032721;28;20037;-62
2023/09/10 08:19:08;;;;;;;37.20;27.67;;;;;;;22.26;100.00;101651.59;5032774;28;20060;-62
2023/09/10 08:21:56;;;;;;;36.95;26.88;;;;;;;22.30;100.00;101649.81;5041122;28;20056;-64
2023/09/10 08:24:46;;;;;;;36.90;25.45;;;;;;;22.32;100.00;101650.28;5045239;28;20088;-63
2023/09/10 08:27:35;;;;;;;33.33;25.00;;;;;;;22.36;100.00;101656.81;5032727;28;20052;-62
2023/09/10 08:30:23;;;;;;;38.85;27.23;;;;;;;22.40;100.00;101645.91;5032350;28;20057;-63
2023/09/10 08:33:11;;;;;;;32.80;26.50;;;;;;;22.43;100.00;101640.47;5033625;28;20048;-63
2023/09/10 08:35:59;;;;;;;42.78;29.25;;;;;;;22.48;100.00;101640.31;5033152;28;20046;-62
2023/09/10 08:38:47;;;;;;;34.03;25.27;;;;;;;22.51;100.00;101639.66;5033241;28;20128;-62
2023/09/10 08:41:57;;;;;;;41.42;28.48;;;;;;;22.55;100.00;101635.06;5033244;28;20424;-62
2023/09/10 08:44:49;;;;;;;34.25;25.15;;;;;;;22.62;100.00;101630.97;5032015;28;20060;-63
2023/09/10 08:47:39;;;;;;;34.15;25.80;;;;;;;22.66;100.00;101646.66;5031745;28;20049;-62
2023/09/10 08:50:28;;;;;;;33.03;25.05;;;;;;;22.69;100.00;101637.66;5032709;28;20163;-63
2023/09/10 08:53:17;;;;;;;35.20;25.27;;;;;;;22.74;100.00;101640.25;5051756;28;20129;-61
2023/09/10 08:56:05;;;;;;;32.40;24.65;;;;;;;22.79;100.00;101641.25;5052559;28;20045;-62
2023/09/10 08:58:55;;;;;;;32.50;25.85;;;;;;;22.84;100.00;101636.31;5034724;28;20045;-64
2023/09/10 09:01:45;;;;;;;37.40;25.98;;;;;;;22.90;100.00;101637.78;5064818;28;20128;-61
2023/09/10 09:04:33;;;;;;;34.53;25.73;;;;;;;22.94;100.00;101644.28;5052984;28;20198;-62
2023/09/10 09:07:22;;;;;;;30.33;24.23;;;;;;;23.00;100.00;101641.38;5052458;28;20045;-61
2023/09/10 09:10:13;;;;;;;31.77;23.48;;;;;;;23.08;100.00;101638.53;5054579;28;20072;-62
2023/09/10 09:13:06;;;;;;;32.13;24.17;;;;;;;23.11;100.00;101637.88;5044616;28;20128;-62
2023/09/10 09:15:54;;;;;;;33.65;23.08;;;;;;;23.12;100.00;101639.50;5032773;28;20127;-62
2023/09/10 09:18:42;;;;;;;38.38;24.77;;;;;;;23.16;100.00;101631.31;5031070;28;20124;-62
2023/09/10 09:21:31;;;;;;;30.95;23.77;;;;;;;23.22;100.00;101635.53;5038151;28;20057;-62
2023/09/10 09:24:22;;;;;;;30.65;22.42;;;;;;;23.29;100.00;101630.28;5024335;28;20087;-62
2023/09/10 09:27:10;;;;;;;32.25;22.05;;;;;;;23.39;100.00;101635.44;5055755;28;20137;-62
2023/09/10 09:29:59;;;;;;;31.25;22.13;;;;;;;23.46;100.00;101632.16;5072145;28;20057;-62
2023/09/10 09:32:49;;;;;;;38.80;28.58;;;;;;;23.51;100.00;101631.13;5071817;28;20127;-63
2023/09/10 09:35:37;;;;;;;28.00;20.02;;;;;;;23.56;100.00;101625.38;5057792;28;20048;-62
2023/09/10 09:38:27;;;;;;;25.45;17.88;;;;;;;23.63;100.00;101630.41;5051795;28;20493;-63
2023/09/10 09:41:16;;;;;;;26.25;19.17;;;;;;;23.66;100.00;101627.75;5054959;28;20040;-60
2023/09/10 09:44:05;;;;;;;25.45;17.95;;;;;;;23.74;100.00;101618.59;5067373;28;20044;-62
2023/09/10 09:46:57;;;;;;;24.95;17.05;;;;;;;23.82;100.00;101625.22;5055912;28;20091;-61
2023/09/10 09:49:49;;;;;;;21.98;14.75;;;;;;;23.85;100.00;101623.75;5055088;28;20052;-62
2023/09/10 09:52:37;;;;;;;20.40;13.52;;;;;;;23.88;100.00;101617.47;5055555;28;20037;-62
2023/09/10 09:55:26;;;;;;;20.10;12.90;;;;;;;23.87;100.00;101613.88;5055384;28;20045;-64
2023/09/10 09:58:18;;;;;;;20.45;12.98;;;;;;;23.86;100.00;101608.66;5054283;28;20440;-62
2023/09/10 10:01:07;;;;;;;20.35;12.82;;;;;;;23.87;100.00;101607.53;5055565;28;20045;-63
2023/09/10 10:03:57;;;;;;;20.92;11.88;;;;;;;23.89;100.00;101617.16;5056211;28;20048;-64
2023/09/10 10:06:45;;;;;;;16.80;11.30;;;;;;;23.91;100.00;101609.28;5059127;28;20119;-62
2023/09/10 10:09:38;;;;;;;19.38;11.27;;;;;;;23.95;100.00;101604.66;5060551;28;20048;-61
2023/09/10 10:12:27;;;;;;;18.33;11.75;;;;;;;24.03;100.00;101611.31;5059503;28;20087;-62
2023/09/10 10:15:17;;;;;;;17.60;10.75;;;;;;;24.10;100.00;101613.53;5075289;28;20087;-61
2023/09/10 10:18:05;;;;;;;20.63;11.65;;;;;;;24.14;100.00;101606.94;5073622;28;20053;-62
2023/09/10 10:20:53;;;;;;;17.38;10.90;;;;;;;24.18;100.00;101601.53;5074392;28;20041;-60
2023/09/10 10:23:42;;;;;;;18.48;9.80;;;;;;;24.20;100.00;101604.78;5074992;28;20036;-62
2023/09/10 10:26:31;;;;;;;19.08;11.68;;;;;;;24.26;100.00;101597.00;5073356;28;20109;-63
2023/09/10 10:29:20;;;;;;;20.45;10.85;;;;;;;24.31;100.00;101596.81;5073531;28;20047;-63
2023/09/10 10:32:32;;;;;;;14.48;10.00;;;;;;;24.34;100.00;101596.94;5058067;28;20055;-63
2023/09/10 10:35:20;;;;;;;17.15;10.10;;;;;;;24.40;100.00;101598.34;5074960;28;20056;-63
2023/09/10 10:38:09;;;;;;;20.40;12.18;;;;;;;24.47;100.00;101592.25;5048313;28;20045;-64
2023/09/10 10:40:58;;;;;;;20.30;10.85;;;;;;;24.54;100.00;101586.91;5054471;28;20037;-63
2023/09/10 10:44:16;;;;;;;14.88;9.32;;;;;;;24.56;100.00;101587.41;5054496;28;20124;-63
2023/09/10 10:47:15;;;;;;;20.40;9.07;;;;;;;24.62;100.00;101594.34;5055403;28;20056;-63
2023/09/10 10:50:05;;;;;;;15.05;8.45;;;;;;;24.71;100.00;101590.69;5071660;28;20090;-63
2023/09/10 10:53:34;;;;;;;17.83;8.82;;;;;;;24.74;99.53;101593.56;5071522;28;20522;-62
2023/09/10 10:56:22;;;;;;;16.83;8.02;;;;;;;24.85;97.79;101585.59;5040863;28;20131;-64
2023/09/10 10:59:10;;;;;;;15.82;8.20;;;;;;;24.96;97.75;101574.78;5069288;28;20072;-65
2023/09/10 11:02:13;;;;;;;11.68;7.60;;;;;;;25.03;97.06;101575.00;5052350;28;20037;-63
2023/09/10 11:05:06;;;;;;;20.02;8.48;;;;;;;25.10;96.01;101575.25;5061008;28;20041;-64
2023/09/10 11:08:23;;;;;;;22.15;8.27;;;;;;;25.16;95.50;101570.22;5073179;28;20049;-64
2023/09/10 11:11:34;;;;;;;15.35;7.13;;;;;;;25.22;97.26;101568.88;4717925;28;10000483;-64
2023/09/10 11:14:22;;;;;;;12.68;7.55;;;;;;;25.27;96.30;101563.88;5050624;28;20053;-64
2023/09/10 11:17:37;;;;;;;16.77;7.45;;;;;;;25.28;96.07;101567.50;5065803;28;20048;-63
2023/09/10 11:20:49;;;;;;;14.63;6.80;;;;;;;25.27;95.38;101572.22;5071088;28;20036;-64
2023/09/10 11:23:58;;;;;;;19.80;7.47;;;;;;;25.28;93.23;101562.72;5067763;28;20048;-64
2023/09/10 11:26:48;;;;;;;13.48;6.63;;;;;;;25.29;92.60;101564.34;5055853;28;20452;-63
2023/09/10 11:29:36;;;;;;;17.17;8.05;;;;;;;25.30;93.75;101567.94;5052003;28;20075;-63
2023/09/10 11:32:24;;;;;;;14.77;6.72;;;;;;;25.33;93.43;101563.63;5039524;28;20049;-62
2023/09/10 11:35:18;;;;;;;15.45;7.72;;;;;;;25.38;93.88;101558.63;5058899;28;20416;-64
2023/09/10 11:38:07;;;;;;;13.05;6.20;;;;;;;25.46;92.41;101565.25;5052018;28;20047;-63
2023/09/10 11:40:55;;;;;;;12.98;6.32;;;;;;;25.54;91.27;101569.06;5025192;28;20049;-62
2023/09/10 11:43:43;;;;;;;14.25;6.82;;;;;;;25.60;91.32;101564.88;5040584;28;20055;-61
2023/09/10 11:46:31;;;;;;;15.07;6.70;;;;;;;25.64;89.85;101571.34;5066535;28;20045;-61
2023/09/10 11:49:21;;;;;;;13.05;6.38;;;;;;;25.69;89.17;101559.97;5037407;28;20078;-63
2023/09/10 11:52:09;;;;;;;12.73;6.68;;;;;;;25.72;89.21;101564.84;5040116;28;20501;-62
2023/09/10 11:55:00;;;;;;;14.35;6.32;;;;;;;25.72;89.12;101562.03;5041399;28;20076;-62
2023/09/10 11:57:50;;;;;;;14.95;6.93;;;;;;;25.72;89.01;101562.03;5050837;28;20484;-61
2023/09/10 12:00:41;;;;;;;20.27;6.82;;;;;;;25.68;89.70;101563.91;5051838;28;20044;-62
2023/09/10 12:03:31;;;;;;;14.18;6.57;;;;;;;25.64;90.17;101560.19;5040179;28;20049;-61
2023/09/10 12:06:19;;;;;;;13.40;6.85;;;;;;;25.64;91.25;101554.59;5053104;28;20080;-62
2023/09/10 12:09:07;;;;;;;14.57;7.30;;;;;;;25.68;91.47;101552.75;5050878;28;20037;-61
2023/09/10 12:11:56;;;;;;;14.23;6.57;;;;;;;25.72;91.88;101556.47;5062345;28;20044;-63
2023/09/10 12:14:44;;;;;;;13.60;6.70;;;;;;;25.76;90.90;101554.59;5032730;28;20091;-64
2023/09/10 12:17:32;;;;;;;17.13;7.00;;;;;;;25.81;90.14;101553.50;5071112;28;20504;-61
2023/09/10 12:20:21;;;;;;;14.85;6.60;;;;;;;25.86;89.82;101556.91;5071125;28;20041;-65
2023/09/10 12:23:09;;;;;;;15.50;6.65;;;;;;;25.93;89.70;101554.31;5071330;28;20056;-64
2023/09/10 12:25:58;;;;;;;18.17;6.78;;;;;;;25.98;87.06;101553.25;5040786;28;20048;-63
2023/09/10 12:28:47;;;;;;;16.20;6.72;;;;;;;26.17;86.76;101544.22;5051350;28;20518;-63
2023/09/10 12:31:36;;;;;;;12.52;6.15;;;;;;;26.31;85.86;101540.97;5051761;28;20081;-62
2023/09/10 12:34:24;;;;;;;15.30;6.45;;;;;;;26.29;86.27;101549.72;5047502;28;20062;-63
2023/09/10 12:37:15;;;;;;;18.58;6.35;;;;;;;26.32;86.43;101546.22;5070873;28;20048;-63
2023/09/10 12:40:04;;;;;;;16.55;6.72;;;;;;;26.37;85.55;101547.13;5072573;28;20102;-63
2023/09/10 12:42:53;;;;;;;17.27;6.18;;;;;;;26.34;84.33;101537.47;5044162;28;20048;-63
2023/09/10 12:45:41;;;;;;;14.52;6.00;;;;;;;26.37;83.66;101539.53;5053394;28;20203;-62
2023/09/10 12:48:29;;;;;;;12.40;6.05;;;;;;;26.42;82.35;101538.47;5050231;28;20037;-63